sensor_id;sensor_type;location;lat;lon;timestamp;pressure;altitude;pressure_sealevel;temperature
77385;BMP280;66444;49.680;18.538;2024-01-15T00:02:39;95600.52337870363;;;2.5233850821387023
77385;BMP280;66444;49.680;18.538;2024-01-15T00:07:43;95590.03105087056;;;2.5233850821387023
77385;BMP280;66444;49.680;18.538;2024-01-15T00:12:46;95581.06806019651;;;2.533577684499323
77385;BMP280;66444;49.680;18.538;2024-01-15T00:17:49;95567.95252516119;;;2.533577684499323
77385;BMP280;66444;49.680;18.538;2024-01-15T00:22:52;95556.3659051492;;;2.54377026357688
77385;BMP280;66444;49.680;18.538;2024-01-15T00:27:56;95554.83704953903;;;2.533577684499323
77385;BMP280;66444;49.680;18.538;2024-01-15T00:32:59;95551.77936519468;;;2.513192456495017
77385;BMP280;66444;49.680;18.538;2024-01-15T00:38:07;95536.0414158449;;;2.513192456495017
77385;BMP280;66444;49.680;18.538;2024-01-15T00:43:11;95542.81604615813;;;2.5233850821387023
77385;BMP280;66444;49.680;18.538;2024-01-15T00:48:14;95528.60627653416;;;2.533577684499323
77385;BMP280;66444;49.680;18.538;2024-01-15T00:53:18;95528.60627653416;;;2.533577684499323
77385;BMP280;66444;49.680;18.538;2024-01-15T00:58:21;95519.64225601728;;;2.54377026357688
77385;BMP280;66444;49.680;18.538;2024-01-15T01:03:24;95524.22697615618;;;2.574347861111164
77385;BMP280;66444;49.680;18.538;2024-01-15T01:08:28;95518.11403387494;;;2.533577684499323
77385;BMP280;66444;49.680;18.538;2024-01-15T01:13:31;95513.73404756327;;;2.574347861111164
77385;BMP280;66444;49.680;18.538;2024-01-15T01:18:35;95524.66017478342;;;2.5947328097186984
77385;BMP280;66444;49.680;18.538;2024-01-15T01:23:38;95509.35279451137;;;2.615117665193975
77385;BMP280;66444;49.680;18.538;2024-01-15T01:28:42;95501.91472842764;;;2.635502427536994
77385;BMP280;66444;49.680;18.538;2024-01-15T01:33:45;95476.34479930144;;;2.6049252490978687
77385;BMP280;66444;49.680;18.538;2024-01-15T01:38:49;95480.26202380125;;;2.6660793964285405
77385;BMP280;66444;49.680;18.538;2024-01-15T01:43:53;95477.63843315112;;;2.6660793964285405
77385;BMP280;66444;49.680;18.538;2024-01-15T01:48:56;95467.57466734716;;;2.6864639259409158
77385;BMP280;66444;49.680;18.538;2024-01-15T01:54:01;95460.03685452217;;;2.6711755375377835
77385;BMP280;66444;49.680;18.538;2024-01-15T01:59:04;95454.59476895348;;;2.5998290323186666
77385;BMP280;66444;49.680;18.538;2024-01-15T02:04:10;95437.89657014173;;;2.5233850821387023
77385;BMP280;66444;49.680;18.538;2024-01-15T02:09:14;95417.57927731838;;;2.492807135358453
77385;BMP280;66444;49.680;18.538;2024-01-15T02:14:18;95414.33021054602;;;2.4010720377322285
77385;BMP280;66444;49.680;18.538;2024-01-15T02:19:21;95419.57499871134;;;2.4010720377322285
77385;BMP280;66444;49.680;18.538;2024-01-15T02:24:24;95417.48166335767;;;2.457132599269971
77385;BMP280;66444;49.680;18.538;2024-01-15T02:29:28;95405.56177121302;;;2.482614439865574
77385;BMP280;66444;49.680;18.538;2024-01-15T02:34:32;95386.77324076269;;;2.462228979030624
77385;BMP280;66444;49.680;18.538;2024-01-15T02:39:35;95395.64060016375;;;2.41636135163717
77385;BMP280;66444;49.680;18.538;2024-01-15T02:44:40;95393.54467401723;;;2.4724217210896313
77385;BMP280;66444;49.680;18.538;2024-01-15T02:49:43;95390.49234554352;;;2.4520362136885523
77385;BMP280;66444;49.680;18.538;2024-01-15T02:54:46;95389.8254061742;;;2.482614439865574
77385;BMP280;66444;49.680;18.538;2024-01-15T02:59:50;95380.19247906921;;;2.5233850821387023
77385;BMP280;66444;49.680;18.538;2024-01-15T03:04:53;95386.20123235529;;;2.5284813862293958
77385;BMP280;66444;49.680;18.538;2024-01-15T03:09:57;95368.17527917605;;;2.513192456495017
77385;BMP280;66444;49.680;18.538;2024-01-15T03:15:02;95382.38638294463;;;2.502999807568267
77385;BMP280;66444;49.680;18.538;2024-01-15T03:20:07;95380.86045883414;;;2.492807135358453
77385;BMP280;66444;49.680;18.538;2024-01-15T03:25:11;95376.28274019227;;;2.462228979030624
77385;BMP280;66444;49.680;18.538;2024-01-15T03:30:15;95370.27460412862;;;2.457132599269971
77385;BMP280;66444;49.680;18.538;2024-01-15T03:35:18;95360.54706061575;;;2.462228979030624
77385;BMP280;66444;49.680;18.538;2024-01-15T03:40:22;95357.49583583235;;;2.4418434250634165
77385;BMP280;66444;49.680;18.538;2024-01-15T03:45:25;95367.98591745466;;;2.4418434250634165
77385;BMP280;66444;49.680;18.538;2024-01-15T03:50:29;95345.23950309736;;;2.482614439865574
77385;BMP280;66444;49.680;18.538;2024-01-15T03:55:32;95329.50346596427;;;2.482614439865574
77385;BMP280;66444;49.680;18.538;2024-01-15T04:00:36;95340.42186538894;;;2.502999807568267
77385;BMP280;66444;49.680;18.538;2024-01-15T04:05:39;95351.0059847747;;;2.538673976948485
77385;BMP280;66444;49.680;18.538;2024-01-15T04:10:43;95359.63750699896;;;2.54377026357688
77385;BMP280;66444;49.680;18.538;2024-01-15T04:15:46;95346.09514771341;;;2.5233850821387023
77385;BMP280;66444;49.680;18.538;2024-01-15T04:20:50;95338.22658981985;;;2.5233850821387023
77385;BMP280;66444;49.680;18.538;2024-01-15T04:25:53;95341.94707457731;;;2.513192456495017
77385;BMP280;66444;49.680;18.538;2024-01-15T04:30:57;95341.09155146148;;;2.4724217210896313
77385;BMP280;66444;49.680;18.538;2024-01-15T04:36:01;95342.52345179208;;;2.4469398222863674
77385;BMP280;66444;49.680;18.538;2024-01-15T04:41:06;95330.6552548366;;;2.3501072796992957
77385;BMP280;66444;49.680;18.538;2024-01-15T04:46:14;95327.60467954515;;;2.329721213504672
77385;BMP280;66444;49.680;18.538;2024-01-15T04:51:17;95335.37552792518;;;2.294045373564586
77385;BMP280;66444;49.680;18.538;2024-01-15T04:56:21;95319.54963929577;;;2.2583692484069617
77385;BMP280;66444;49.680;18.538;2024-01-15T05:01:23;95297.71964385822;;;2.2175961846951395
77385;BMP280;66444;49.680;18.538;2024-01-15T05:06:26;95307.10923858166;;;2.2277894855476914
77385;BMP280;66444;49.680;18.538;2024-01-15T05:11:29;95307.53781511747;;;2.2481760174036025
77385;BMP280;66444;49.680;18.538;2024-01-15T05:16:31;95307.29770395583;;;2.2991419395897537
77385;BMP280;66444;49.680;18.538;2024-01-15T05:21:35;95311.77888680663;;;2.294045373564586
77385;BMP280;66444;49.680;18.538;2024-01-15T05:26:37;95308.58137533994;;;2.3603002778720112
77385;BMP280;66444;49.680;18.538;2024-01-15T05:31:40;95303.00217873821;;;2.3755897314753383
77385;BMP280;66444;49.680;18.538;2024-01-15T05:36:43;95311.63119014271;;;2.3806862043682484
77385;BMP280;66444;49.680;18.538;2024-01-15T05:41:45;95310.10627826132;;;2.370493252761662
77385;BMP280;66444;49.680;18.538;2024-01-15T05:46:48;95306.20078854874;;;2.309335054177791
77385;BMP280;66444;49.680;18.538;2024-01-15T05:51:51;95291.13896225412;;;2.278755640564486
77385;BMP280;66444;49.680;18.538;2024-01-15T05:56:53;95293.3328392544;;;2.2583692484069617
77385;BMP280;66444;49.680;18.538;2024-01-15T06:01:56;95289.8551644613;;;2.2175961846951395
77385;BMP280;66444;49.680;18.538;2024-01-15T06:07:01;95290.5234631827;;;2.1870161424390973
77385;BMP280;66444;49.680;18.538;2024-01-15T06:12:06;95302.10518270933;;;2.1768227484542875
77385;BMP280;66444;49.680;18.538;2024-01-15T06:17:10;95283.32763716675;;;2.1564358906354757
77385;BMP280;66444;49.680;18.538;2024-01-15T06:22:13;95284.85245103773;;;2.1666293311864138
77385;BMP280;66444;49.680;18.538;2024-01-15T06:27:15;95282.27965918904;;;2.0443065078929066
77385;BMP280;66444;49.680;18.538;2024-01-15T06:32:18;95279.8958900683;;;1.9933376753237098
77385;BMP280;66444;49.680;18.538;2024-01-15T06:37:21;95295.98775266527;;;1.855718919914216
77385;BMP280;66444;49.680;18.538;2024-01-15T06:42:24;95289.12292140356;;;1.8098450584802777
77385;BMP280;66444;49.680;18.538;2024-01-15T06:47:27;95294.9240663863;;;1.7435819818172604
77385;BMP280;66444;49.680;18.538;2024-01-15T06:52:30;95297.67032501416;;;1.6569287818856537
77385;BMP280;66444;49.680;18.538;2024-01-15T06:57:33;95309.13607601504;;;1.6110528773628174
77385;BMP280;66444;49.680;18.538;2024-01-15T07:02:40;95318.41460924566;;;1.5855660600122063
77385;BMP280;66444;49.680;18.538;2024-01-15T07:07:43;95325.94192911469;;;1.6008581678848715
77385;BMP280;66444;49.680;18.538;2024-01-15T07:12:46;95320.70419478005;;;1.6008581678848715
77385;BMP280;66444;49.680;18.538;2024-01-15T07:17:49;95322.99380075731;;;1.6161502233706415
77385;BMP280;66444;49.680;18.538;2024-01-15T07:22:51;95330.4163850346;;;1.595760804414749
77385;BMP280;66444;49.680;18.538;2024-01-15T07:27:54;95324.7444961497;;;1.5753712923265994
77385;BMP280;66444;49.680;18.538;2024-01-15T07:32:57;95327.67721435631;;;1.6824151917826384
77385;BMP280;66444;49.680;18.538;2024-01-15T07:38:00;95328.4565470326;;;2.090177959529683
77385;BMP280;66444;49.680;18.538;2024-01-15T07:43:03;95332.7379104989;;;2.0137252782005817
77385;BMP280;66444;49.680;18.538;2024-01-15T07:48:06;95320.76211529964;;;1.8812041947618128
77385;BMP280;66444;49.680;18.538;2024-01-15T07:53:09;95324.27331716566;;;1.7996508030220866
77385;BMP280;66444;49.680;18.538;2024-01-15T07:58:12;95329.96679360748;;;1.697706967871636
77385;BMP280;66444;49.680;18.538;2024-01-15T08:03:14;95320.14935225938;;;1.667123363306746
77385;BMP280;66444;49.680;18.538;2024-01-15T08:08:17;95341.10262217629;;;1.667123363306746
77385;BMP280;66444;49.680;18.538;2024-01-15T08:13:20;95343.49713711478;;;1.7180959211662412
77385;BMP280;66444;49.680;18.538;2024-01-15T08:18:23;95347.97258095465;;;1.712998691573739
77385;BMP280;66444;49.680;18.538;2024-01-15T08:23:26;95357.6866585403;;;1.7079014561604708
77385;BMP280;66444;49.680;18.538;2024-01-15T08:28:29;95363.34359898447;;;1.850621847482398
77385;BMP280;66444;49.680;18.538;2024-01-15T08:33:31;95359.83557318519;;;1.9321743078995497
77385;BMP280;66444;49.680;18.538;2024-01-15T08:38:34;95366.18918780665;;;1.7996508030220866
77385;BMP280;66444;49.680;18.538;2024-01-15T08:43:37;95386.06435649902;;;1.687512456299737
77385;BMP280;66444;49.680;18.538;2024-01-15T08:48:40;95351.69568543856;;;1.580468679079786
77385;BMP280;66444;49.680;18.538;2024-01-15T08:53:44;95362.37210257558;;;1.7741650625132024
77385;BMP280;66444;49.680;18.538;2024-01-15T08:58:47;95376.42373163805;;;1.9729499793145806
77385;BMP280;66444;49.680;18.538;2024-01-15T09:03:49;95375.50322039303;;;2.1768227484542875
77385;BMP280;66444;49.680;18.538;2024-01-15T09:08:52;95387.71443061349;;;2.2583692484069617
77385;BMP280;66444;49.680;18.538;2024-01-15T09:13:55;95372.21778518251;;;2.2074028605595233
77385;BMP280;66444;49.680;18.538;2024-01-15T09:18:58;95353.49136992099;;;2.345010771881789
77385;BMP280;66444;49.680;18.538;2024-01-15T09:24:01;95356.80116241971;;;2.7527130036614835
77385;BMP280;66444;49.680;18.538;2024-01-15T09:29:06;95377.54700535082;;;2.8036731632892042
77385;BMP280;66444;49.680;18.538;2024-01-15T09:34:09;95366.21833199156;;;2.9208793214522304
77385;BMP280;66444;49.680;18.538;2024-01-15T09:39:13;95377.99296878168;;;2.98202913813293
77385;BMP280;66444;49.680;18.538;2024-01-15T09:44:16;95395.33501767178;;;2.8699205006007107
77385;BMP280;66444;49.680;18.538;2024-01-15T09:49:20;95375.32025229254;;;2.6660793964285405
77385;BMP280;66444;49.680;18.538;2024-01-15T09:54:23;95375.7477412319;;;2.6864639259409158
77385;BMP280;66444;49.680;18.538;2024-01-15T09:59:26;95380.56725052073;;;2.6660793964285405
77385;BMP280;66444;49.680;18.538;2024-01-15T10:04:30;95394.48141335144;;;2.829153024824336
77385;BMP280;66444;49.680;18.538;2024-01-15T10:09:33;95377.21085589111;;;2.818961097672582
77385;BMP280;66444;49.680;18.538;2024-01-15T10:14:36;95381.6056470365;;;2.77819315623492
77385;BMP280;66444;49.680;18.538;2024-01-15T10:19:39;95363.1163092411;;;2.584540347056463
77385;BMP280;66444;49.680;18.538;2024-01-15T10:24:42;95374.69314014752;;;3.0126037321519106
77385;BMP280;66444;49.680;18.538;2024-01-15T10:29:45;95371.78165668542;;;2.747616955684498
77385;BMP280;66444;49.680;18.538;2024-01-15T10:34:49;95361.10457622778;;;2.6762716728262603
77385;BMP280;66444;49.680;18.538;2024-01-15T10:39:55;95376.96433068119;;;2.8699205006007107
77385;BMP280;66444;49.680;18.538;2024-01-15T10:44:58;95381.64213593333;;;3.0941349584143607
77385;BMP280;66444;49.680;18.538;2024-01-15T10:50:01;95386.13033324658;;;3.0890393004287033
77385;BMP280;66444;49.680;18.538;2024-01-15T10:55:05;95400.09135843022;;;2.971837560227141
77385;BMP280;66444;49.680;18.538;2024-01-15T11:00:11;95388.28756718163;;;2.7527130036614835
77385;BMP280;66444;49.680;18.538;2024-01-15T11:05:14;95397.45597629872;;;2.533577684499323
77385;BMP280;66444;49.680;18.538;2024-01-15T11:10:50;95394.87744883678;;;2.4112649194896223
77385;BMP280;66444;49.680;18.538;2024-01-15T11:15:55;95402.50906289741;;;2.462228979030624
77385;BMP280;66444;49.680;18.538;2024-01-15T11:21:32;95372.65807145051;;;2.5080961349420248
77385;BMP280;66444;49.680;18.538;2024-01-15T11:26:44;95383.00408928862;;;2.5947328097186984
77385;BMP280;66444;49.680;18.538;2024-01-15T11:32:05;95399.36010118277;;;2.6864639259409158
77385;BMP280;66444;49.680;18.538;2024-01-15T11:37:08;95385.26370304462;;;2.8903040987905113
77385;BMP280;66444;49.680;18.538;2024-01-15T11:42:12;95381.84981717769;;;2.7272327055688947
77385;BMP280;66444;49.680;18.538;2024-01-15T11:47:16;95367.87699738055;;;2.6864639259409158
77385;BMP280;66444;49.680;18.538;2024-01-15T11:52:50;95369.09121480105;;;2.8699205006007107
77385;BMP280;66444;49.680;18.538;2024-01-15T11:58:01;95359.35620745008;;;2.87501640887931
77385;BMP280;66444;49.680;18.538;2024-01-15T12:03:10;95370.92774605221;;;2.706848362321034
77385;BMP280;66444;49.680;18.538;2024-01-15T12:08:13;95358.0540620281;;;2.655887096747756
77385;BMP280;66444;49.680;18.538;2024-01-15T12:13:17;95370.7437067177;;;2.635502427536994
77385;BMP280;66444;49.680;18.538;2024-01-15T12:18:21;95387.91603927252;;;2.6100214600563048
77385;BMP280;66444;49.680;18.538;2024-01-15T12:23:23;95370.46378834822;;;2.5284813862293958
77385;BMP280;66444;49.680;18.538;2024-01-15T12:28:27;95370.7437067177;;;2.635502427536994
77385;BMP280;66444;49.680;18.538;2024-01-15T12:33:30;95367.02240525096;;;2.6456947737839074
77385;BMP280;66444;49.680;18.538;2024-01-15T12:38:33;95372.93926672616;;;2.615117665193975
77385;BMP280;66444;49.680;18.538;2024-01-15T12:43:36;95367.59981084203;;;2.5794441069941967
77385;BMP280;66444;49.680;18.538;2024-01-15T12:48:39;95366.59489480223;;;2.625310058007017
77385;BMP280;66444;49.680;18.538;2024-01-15T12:53:42;95370.98572427983;;;2.584540347056463
77385;BMP280;66444;49.680;18.538;2024-01-15T12:58:45;95368.36258355666;;;2.584540347056463
77385;BMP280;66444;49.680;18.538;2024-01-15T13:03:48;95368.6037075714;;;2.533577684499323
77385;BMP280;66444;49.680;18.538;2024-01-15T13:08:51;95340.42186538894;;;2.502999807568267
77385;BMP280;66444;49.680;18.538;2024-01-15T13:13:54;95338.89666514208;;;2.492807135358453
77385;BMP280;66444;49.680;18.538;2024-01-15T13:19:01;95322.97571581924;;;2.4214577779639512
77385;BMP280;66444;49.680;18.538;2024-01-15T13:24:06;95335.84629147897;;;2.4724217210896313
77385;BMP280;66444;49.680;18.538;2024-01-15T13:29:09;95328.40581176738;;;2.492807135358453
77385;BMP280;66444;49.680;18.538;2024-01-15T13:34:12;95334.99054958188;;;2.431650613155216
77385;BMP280;66444;49.680;18.538;2024-01-15T13:39:15;95331.02852154674;;;2.492807135358453
77385;BMP280;66444;49.680;18.538;2024-01-15T13:44:19;95322.67119474725;;;2.5947328097186984
77385;BMP280;66444;49.680;18.538;2024-01-15T13:49:22;95335.45117655348;;;2.6100214600563048
77385;BMP280;66444;49.680;18.538;2024-01-15T13:54:25;95330.78513273798;;;2.54377026357688
77385;BMP280;66444;49.680;18.538;2024-01-15T13:59:28;95334.41378746726;;;2.497903474373743
77385;BMP280;66444;49.680;18.538;2024-01-15T14:04:33;95339.56628756798;;;2.462228979030624
77385;BMP280;66444;49.680;18.538;2024-01-15T14:09:36;95334.99054958188;;;2.431650613155216
77385;BMP280;66444;49.680;18.538;2024-01-15T14:14:40;95337.18482896267;;;2.4112649194896223
77385;BMP280;66444;49.680;18.538;2024-01-15T14:19:43;95333.46532148965;;;2.4214577779639512
77385;BMP280;66444;49.680;18.538;2024-01-15T14:24:46;95343.95496517047;;;2.4214577779639512
77385;BMP280;66444;49.680;18.538;2024-01-15T14:29:49;95352.72852140813;;;2.339914258243516
77385;BMP280;66444;49.680;18.538;2024-01-15T14:34:52;95351.43992892248;;;2.278755640564486
77385;BMP280;66444;49.680;18.538;2024-01-15T14:39:55;95337.66374821214;;;2.309335054177791
77385;BMP280;66444;49.680;18.538;2024-01-15T14:44:58;95337.56814215868;;;2.2736590512562542
77385;BMP280;66444;49.680;18.538;2024-01-15T14:50:01;95348.38839358225;;;2.2583692484069617
77385;BMP280;66444;49.680;18.538;2024-01-15T14:55:06;95347.29239471901;;;2.268562456127256
77385;BMP280;66444;49.680;18.538;2024-01-15T15:00:11;95347.95852288007;;;2.2379827631171794
77385;BMP280;66444;49.680;18.538;2024-01-15T15:05:14;95365.21440686354;;;2.2481760174036025
77385;BMP280;66444;49.680;18.538;2024-01-15T15:10:17;95355.77992891154;;;2.3603002778720112
77385;BMP280;66444;49.680;18.538;2024-01-15T15:15:20;95348.62419857939;;;2.2074028605595233
77385;BMP280;66444;49.680;18.538;2024-01-15T15:20:24;95348.8934764927;;;2.034112787945196
77385;BMP280;66444;49.680;18.538;2024-01-15T15:25:32;95349.4555582291;;;1.967853040760383
77385;BMP280;66444;49.680;18.538;2024-01-15T15:30:37;95346.30165003879;;;1.911786332493648
77385;BMP280;66444;49.680;18.538;2024-01-15T15:35:40;95348.48931879996;;;1.8913982639554887
77385;BMP280;66444;49.680;18.538;2024-01-15T15:40:43;95358.30906695356;;;1.921980331838131
77385;BMP280;66444;49.680;18.538;2024-01-15T15:45:46;95352.53347659868;;;1.8659130473155527
77385;BMP280;66444;49.680;18.538;2024-01-15T15:50:50;95362.68354734313;;;1.8812041947618128
77385;BMP280;66444;49.680;18.538;2024-01-15T15:55:53;95353.72960249004;;;1.8913982639554887
77385;BMP280;66444;49.680;18.538;2024-01-15T16:00:56;95360.49646523752;;;1.9015923098661005
77385;BMP280;66444;49.680;18.538;2024-01-15T16:06:00;95347.62377646772;;;1.850621847482398
77385;BMP280;66444;49.680;18.538;2024-01-15T16:11:04;95356.36944666038;;;1.7690678969491274
77385;BMP280;66444;49.680;18.538;2024-01-15T16:16:08;95353.31600921864;;;1.748679176485166
77385;BMP280;66444;49.680;18.538;2024-01-15T16:21:11;95374.04848111987;;;1.7996508030220866
77385;BMP280;66444;49.680;18.538;2024-01-15T16:26:14;95372.74525823374;;;1.7384847813285886
77385;BMP280;66444;49.680;18.538;2024-01-15T16:31:17;95372.53281142483;;;1.667123363306746
77385;BMP280;66444;49.680;18.538;2024-01-15T16:36:21;95349.61794414047;;;1.6365395491942762
77385;BMP280;66444;49.680;18.538;2024-01-15T16:41:24;95360.31566396785;;;1.5855660600122063
77385;BMP280;66444;49.680;18.538;2024-01-15T16:46:27;95370.79102241405;;;1.5855660600122063
77385;BMP280;66444;49.680;18.538;2024-01-15T16:51:30;95376.7924061943;;;1.5906634351238609
77385;BMP280;66444;49.680;18.538;2024-01-15T16:56:34;95396.2157154107;;;1.580468679079786
77385;BMP280;66444;49.680;18.538;2024-01-15T17:01:37;95414.98486279114;;;1.6008581678848715
77385;BMP280;66444;49.680;18.538;2024-01-15T17:06:40;95408.76532976198;;;1.6467341771814972
77385;BMP280;66444;49.680;18.538;2024-01-15T17:11:44;95409.85659205391;;;1.6365395491942762
77385;BMP280;66444;49.680;18.538;2024-01-15T17:16:47;95413.78527645448;;;1.697706967871636
77385;BMP280;66444;49.680;18.538;2024-01-15T17:21:51;95417.71321177931;;;1.7588735483586788
77385;BMP280;66444;49.680;18.538;2024-01-15T17:26:54;95430.58521627313;;;1.9321743078995497
77385;BMP280;66444;49.680;18.538;2024-01-15T17:31:57;95422.06585818698;;;1.9627560963854194
77385;BMP280;66444;49.680;18.538;2024-01-15T17:37:01;95407.22573407904;;;1.8812041947618128
77385;BMP280;66444;49.680;18.538;2024-01-15T17:42:06;95412.68841330649;;;1.8302334995474667
77385;BMP280;66444;49.680;18.538;2024-01-15T17:47:09;95417.49278175436;;;1.8098450584802777
77385;BMP280;66444;49.680;18.538;2024-01-15T17:52:14;95425.68037346868;;;1.794553666561842
77385;BMP280;66444;49.680;18.538;2024-01-15T17:57:23;95426.00828813092;;;1.7792622222565115
77385;BMP280;66444;49.680;18.538;2024-01-15T18:02:26;95423.60784489388;;;1.7282903628889472
77385;BMP280;66444;49.680;18.538;2024-01-15T18:07:30;95422.4073726997;;;1.7028042149264366
77385;BMP280;66444;49.680;18.538;2024-01-15T18:12:33;95431.90297623431;;;1.748679176485166
77385;BMP280;66444;49.680;18.538;2024-01-15T18:17:36;95426.00828813092;;;1.7792622222565115
77385;BMP280;66444;49.680;18.538;2024-01-15T18:22:40;95439.7598698997;;;1.8710101022850723
77385;BMP280;66444;49.680;18.538;2024-01-15T18:27:43;95437.57543163966;;;1.8913982639554887
77385;BMP280;66444;49.680;18.538;2024-01-15T18:32:46;95445.87191949128;;;1.911786332493648
77385;BMP280;66444;49.680;18.538;2024-01-15T18:37:50;95445.87191949128;;;1.911786332493648
77385;BMP280;66444;49.680;18.538;2024-01-15T18:42:53;95448.92799858186;;;1.9321743078995497
77385;BMP280;66444;49.680;18.538;2024-01-15T18:47:56;95449.58443841938;;;1.9015923098661005
77385;BMP280;66444;49.680;18.538;2024-01-15T18:53:00;95460.0655566825;;;1.9015923098661005
77385;BMP280;66444;49.680;18.538;2024-01-15T18:58:05;95467.48978346774;;;1.8812041947618128
77385;BMP280;66444;49.680;18.538;2024-01-15T19:03:08;95462.6808020509;;;2.023919044714421
77385;BMP280;66444;49.680;18.538;2024-01-15T19:08:12;95464.65047591968;;;1.9321743078995497
77385;BMP280;66444;49.680;18.538;2024-01-15T19:13:15;95471.96592294636;;;1.8761071514338254
77385;BMP280;66444;49.680;18.538;2024-01-15T19:18:18;95457.22764241035;;;1.8302334995474667
77385;BMP280;66444;49.680;18.538;2024-01-15T19:23:22;95458.31921257231;;;1.8200392906554044
77385;BMP280;66444;49.680;18.538;2024-01-15T19:28:25;95461.59344891994;;;1.7894565242808311
77385;BMP280;66444;49.680;18.538;2024-01-15T19:33:29;95461.37206875996;;;1.7180959211662412
77385;BMP280;66444;49.680;18.538;2024-01-15T19:38:32;95472.06399533276;;;1.667123363306746
77385;BMP280;66444;49.680;18.538;2024-01-15T19:43:36;95454.81969531295;;;1.6569287818856537
77385;BMP280;66444;49.680;18.538;2024-01-15T19:48:40;95458.30427866016;;;1.5753712923265994
77385;BMP280;66444;49.680;18.538;2024-01-15T19:53:43;95462.66389973575;;;1.5345919887535273
77385;BMP280;66444;49.680;18.538;2024-01-15T19:58:46;95489.94038001425;;;1.5243971046525986
77385;BMP280;66444;49.680;18.538;2024-01-15T20:03:50;95511.09648352624;;;1.4734223349019886
77385;BMP280;66444;49.680;18.538;2024-01-15T20:08:53;95513.9201624821;;;1.4224469830747695
77385;BMP280;66444;49.680;18.538;2024-01-15T20:13:57;95507.35811087972;;;1.3612757925409824
77385;BMP280;66444;49.680;18.538;2024-01-15T20:19:01;95519.74476185752;;;1.6008581678848715
77385;BMP280;66444;49.680;18.538;2024-01-15T20:24:06;95509.12517570962;;;1.44283719365485
77385;BMP280;66444;49.680;18.538;2024-01-15T20:29:09;95509.97611547311;;;1.3612757925409824
77385;BMP280;66444;49.680;18.538;2024-01-15T20:34:13;95520.3280471464;;;1.3255922109819949
77385;BMP280;66444;49.680;18.538;2024-01-15T20:39:16;95514.3272191802;;;1.3204945331905038
77385;BMP280;66444;49.680;18.538;2024-01-15T20:44:20;95518.67706011556;;;1.2797129013109951
77385;BMP280;66444;49.680;18.538;2024-01-15T20:49:23;95530.67827685346;;;1.2899083442054688
77385;BMP280;66444;49.680;18.538;2024-01-15T20:54:26;95526.77182994242;;;1.3510805126279593
77385;BMP280;66444;49.680;18.538;2024-01-15T20:59:31;95536.59923961457;;;1.3816662825178354
77385;BMP280;66444;49.680;18.538;2024-01-15T21:04:37;95537.04204566574;;;1.4020566793624312
77385;BMP280;66444;49.680;18.538;2024-01-15T21:09:42;95543.1640001268;;;1.44283719365485
77385;BMP280;66444;49.680;18.538;2024-01-15T21:14:47;95542.39874782485;;;1.4377396497409791
77385;BMP280;66444;49.680;18.538;2024-01-15T21:19:52;95541.6334978066;;;1.4326421000063418
77385;BMP280;66444;49.680;18.538;2024-01-15T21:24:56;95562.5803037983;;;1.4326421000063418
77385;BMP280;66444;49.680;18.538;2024-01-15T21:30:01;95553.8387605893;;;1.3918614925816655
77385;BMP280;66444;49.680;18.538;2024-01-15T21:35:07;95565.3986756645;;;1.3816662825178354
77385;BMP280;66444;49.680;18.538;2024-01-15T21:40:14;95570.63496754272;;;1.3816662825178354
77385;BMP280;66444;49.680;18.538;2024-01-15T21:45:19;95570.83343323797;;;1.3306898829527198
77385;BMP280;66444;49.680;18.538;2024-01-15T21:50:24;95577.03189658903;;;1.2848106256686151
77385;BMP280;66444;49.680;18.538;2024-01-15T21:55:29;95595.55044476509;;;1.2338331201579422
77385;BMP280;66444;49.680;18.538;2024-01-15T22:00:34;95590.82864451033;;;1.1675614927895368